Time;durP1;ratioP1;P1;durP2;ratioP2;P2;SDS_P1;SDS_P2;PMS_P1;PMS_P2;Temp;Humidity;BMP_temperature;BMP_pressure;BME280_temperature;BME280_humidity;BME280_pressure;Samples;Min_cycle;Max_cycle;Signal;HPM_P1;HPM_P2
2022/06/20 00:01:44;;;;;;;9.85;3.72;;;27.70;92.90;;;;;;7392828;19;20143;-75
2022/06/20 00:04:17;;;;;;;7.45;4.18;;;27.70;92.90;;;;;;7392756;19;20871;-76
2022/06/20 00:06:42;;;;;;;6.28;4.35;;;27.70;92.90;;;;;;7397330;19;20494;-76
2022/06/20 00:09:10;;;;;;;10.95;4.32;;;27.70;92.90;;;;;;7395250;19;20154;-76
2022/06/20 00:11:40;;;;;;;10.32;5.07;;;27.80;93.30;;;;;;7393294;19;20189;-75
2022/06/20 00:14:10;;;;;;;6.57;4.05;;;27.70;93.30;;;;;;7395768;19;20177;-75
2022/06/20 00:16:36;;;;;;;9.05;4.45;;;27.70;92.40;;;;;;7393297;19;20139;-76
2022/06/20 00:19:02;;;;;;;8.35;4.40;;;27.60;92.30;;;;;;7391552;19;20158;-76
2022/06/20 00:21:29;;;;;;;7.90;4.63;;;27.40;92.50;;;;;;7390563;19;20166;-76
2022/06/20 00:23:54;;;;;;;8.60;3.90;;;27.30;92.70;;;;;;7395374;19;20139;-76
2022/06/20 00:26:20;;;;;;;4.70;3.80;;;27.30;92.80;;;;;;7395856;19;20171;-76
2022/06/20 00:28:47;;;;;;;7.85;4.05;;;27.30;92.70;;;;;;7394821;19;20475;-76
2022/06/20 00:31:15;;;;;;;6.40;4.50;;;27.40;92.70;;;;;;7393346;19;20147;-78
2022/06/20 00:33:42;;;;;;;6.15;4.18;;;27.30;93.00;;;;;;7393825;19;20598;-75
2022/06/20 00:36:07;;;;;;;8.15;4.30;;;27.30;93.30;;;;;;7393343;19;20157;-75
2022/06/20 00:38:35;;;;;;;6.88;4.00;;;27.20;93.20;;;;;;7392651;19;20217;-75
2022/06/20 00:41:16;;;;;;;12.55;4.78;;;27.10;93.60;;;;;;7390001;19;20613;-76
2022/06/20 00:43:46;;;;;;;8.23;4.25;;;26.90;94.10;;;;;;7391574;19;20150;-75
2022/06/20 00:46:35;;;;;;;6.05;3.92;;;26.90;94.30;;;;;;7390427;19;20146;-75
2022/06/20 00:49:07;;;;;;;6.40;4.68;;;27.00;93.80;;;;;;7387837;19;20231;-76
2022/06/20 00:51:37;;;;;;;9.57;4.40;;;27.10;93.70;;;;;;7391886;19;20154;-76
2022/06/20 00:54:18;;;;;;;8.25;4.35;;;27.10;93.90;;;;;;7392932;19;20498;-76
2022/06/20 00:56:56;;;;;;;9.35;4.38;;;27.00;94.20;;;;;;7392814;19;20155;-76
2022/06/20 00:59:31;;;;;;;6.07;4.40;;;27.00;94.20;;;;;;7391530;19;20598;-75
2022/06/20 01:01:58;;;;;;;8.13;4.65;;;26.80;94.40;;;;;;7392071;19;20146;-76
2022/06/20 01:04:47;;;;;;;8.43;4.30;;;26.80;94.40;;;;;;7393275;19;20504;-76
2022/06/20 01:07:19;;;;;;;9.27;4.25;;;26.70;94.80;;;;;;7388599;19;20159;-75
2022/06/20 01:09:50;;;;;;;7.47;4.93;;;26.40;95.90;;;;;;7393426;19;20171;-75
2022/06/20 01:12:20;;;;;;;14.38;6.10;;;26.50;99.50;;;;;;7393668;19;20139;-77
2022/06/20 01:14:47;;;;;;;8.25;4.97;;;26.40;99.90;;;;;;7393301;19;20471;-75
2022/06/20 01:17:20;;;;;;;12.68;5.78;;;26.30;99.90;;;;;;7393576;19;20130;-75
2022/06/20 01:19:54;;;;;;;9.38;5.68;;;25.80;99.90;;;;;;7385295;19;20151;-76
2022/06/20 01:22:23;;;;;;;10.50;5.88;;;25.40;99.90;;;;;;7396193;19;20138;-75
2022/06/20 01:25:13;;;;;;;11.00;5.82;;;25.40;99.90;;;;;;7390562;19;20164;-76
2022/06/20 01:27:43;;;;;;;13.40;5.88;;;25.00;99.90;;;;;;7392817;19;20173;-76
2022/06/20 01:30:11;;;;;;;12.02;5.07;;;25.10;99.90;;;;;;7390811;19;20139;-76
2022/06/20 01:32:38;;;;;;;9.50;6.22;;;24.70;99.90;;;;;;7388707;19;20127;-75
2022/06/20 01:35:08;;;;;;;11.15;5.72;;;25.00;99.90;;;;;;7391208;19;20213;-75
2022/06/20 01:37:40;;;;;;;10.95;5.78;;;24.70;99.90;;;;;;7386774;19;20138;-76
2022/06/20 01:40:11;;;;;;;11.95;6.45;;;25.00;99.90;;;;;;7388329;19;20168;-76
2022/06/20 01:42:40;;;;;;;12.52;5.78;;;25.30;99.90;;;;;;7389550;19;20134;-76
2022/06/20 01:48:06;;;;;;;10.80;5.32;;;25.40;99.90;;;;;;7387767;19;20610;-76
2022/06/20 01:50:33;;;;;;;7.45;5.30;;;25.30;99.90;;;;;;7389354;19;20131;-75
2022/06/20 01:53:02;;;;;;;10.40;5.40;;;25.20;99.90;;;;;;7387074;19;20127;-76
2022/06/20 01:55:30;;;;;;;10.52;5.68;;;25.30;99.90;;;;;;7393420;19;20506;-76
2022/06/20 01:58:05;;;;;;;8.45;5.57;;;25.50;99.90;;;;;;7388555;19;20660;-76
2022/06/20 02:00:32;;;;;;;12.43;6.55;;;25.50;99.90;;;;;;7388381;19;20613;-76
2022/06/20 02:03:07;;;;;;;9.95;5.50;;;25.50;99.90;;;;;;7394193;19;20499;-75
2022/06/20 02:05:34;;;;;;;7.82;5.45;;;25.60;99.90;;;;;;7387285;19;20198;-75
2022/06/20 02:08:04;;;;;;;13.57;5.47;;;25.60;99.90;;;;;;7391196;19;20567;-75
2022/06/20 02:10:56;;;;;;;10.85;6.18;;;25.60;99.90;;;;;;7390772;19;20139;-76
2022/06/20 02:13:25;;;;;;;10.07;5.45;;;25.60;99.90;;;;;;7391025;19;20204;-76
2022/06/20 02:15:58;;;;;;;12.98;5.65;;;25.50;99.90;;;;;;7390864;19;20324;-75
2022/06/20 02:18:29;;;;;;;11.80;5.20;;;25.50;99.90;;;;;;7387535;19;20594;-76
2022/06/20 02:21:00;;;;;;;10.13;6.07;;;25.40;99.90;;;;;;7385770;19;20172;-74
2022/06/20 02:23:30;;;;;;;10.05;5.38;;;25.30;99.90;;;;;;7393113;19;20143;-75
2022/06/20 02:25:58;;;;;;;10.32;5.80;;;25.30;99.90;;;;;;7389450;19;20127;-74
2022/06/20 02:28:31;;;;;;;8.82;5.47;;;25.20;99.90;;;;;;7392151;19;20145;-75
2022/06/20 02:30:56;;;;;;;9.77;5.65;;;25.20;99.90;;;;;;7388930;19;20146;-76
2022/06/20 02:33:28;;;;;;;8.70;5.53;;;25.20;99.90;;;;;;7389463;19;20137;-75
2022/06/20 02:35:56;;;;;;;14.13;5.60;;;25.20;99.90;;;;;;7389561;19;20139;-75
2022/06/20 02:38:22;;;;;;;10.55;5.60;;;25.20;99.90;;;;;;7388716;19;20135;-75
2022/06/20 02:40:49;;;;;;;15.57;6.65;;;25.20;99.90;;;;;;7389267;19;20130;-75
2022/06/20 02:43:44;;;;;;;13.15;5.93;;;25.20;99.90;;;;;;7387298;19;20464;-75
2022/06/20 02:46:14;;;;;;;11.63;5.28;;;25.20;99.90;;;;;;7387520;19;20171;-75
2022/06/20 02:48:43;;;;;;;10.32;5.65;;;25.00;99.90;;;;;;7387011;19;20154;-74
2022/06/20 02:51:13;;;;;;;9.88;5.03;;;24.90;99.90;;;;;;7387853;19;20521;-75
2022/06/20 02:53:55;;;;;;;10.98;5.63;;;24.70;99.90;;;;;;7385476;19;20194;-74
2022/06/20 02:56:24;;;;;;;12.90;5.57;;;24.90;99.90;;;;;;7388744;19;20168;-73
2022/06/20 02:58:54;;;;;;;12.00;5.88;;;24.70;99.90;;;;;;7387340;19;20138;-73
2022/06/20 03:01:31;;;;;;;7.68;5.50;;;24.70;99.90;;;;;;7388642;19;20135;-74
2022/06/20 03:03:58;;;;;;;10.73;5.60;;;24.70;99.90;;;;;;7391356;19;20158;-74
2022/06/20 03:06:30;;;;;;;8.60;5.13;;;24.70;99.90;;;;;;7394861;19;20638;-74
2022/06/20 03:08:57;;;;;;;12.35;5.85;;;24.80;99.90;;;;;;7399090;19;20491;-75
2022/06/20 03:11:25;;;;;;;10.27;4.93;;;24.80;99.90;;;;;;7395317;19;20210;-74
2022/06/20 03:13:51;;;;;;;11.15;5.78;;;24.20;99.90;;;;;;7397779;19;20142;-73
2022/06/20 03:16:17;;;;;;;9.93;5.35;;;24.30;99.90;;;;;;7399550;19;20157;-74
2022/06/20 03:18:49;;;;;;;8.85;5.50;;;24.40;99.90;;;;;;7395033;19;20131;-74
2022/06/20 03:21:19;;;;;;;10.82;6.00;;;24.40;99.90;;;;;;7395533;19;20164;-74
2022/06/20 03:23:45;;;;;;;9.90;5.65;;;24.60;99.90;;;;;;7397148;19;20131;-74
2022/06/20 03:26:18;;;;;;;7.28;5.13;;;24.70;99.90;;;;;;7395269;19;20499;-75
2022/06/20 03:28:44;;;;;;;12.25;5.88;;;24.30;99.90;;;;;;7396447;19;20164;-74
2022/06/20 03:31:11;;;;;;;9.32;5.43;;;24.40;99.90;;;;;;7398499;19;20143;-75
2022/06/20 03:33:37;;;;;;;10.23;5.63;;;24.60;99.90;;;;;;7396973;19;20209;-74
2022/06/20 03:36:29;;;;;;;8.60;5.50;;;24.40;99.90;;;;;;7394153;19;20145;-75
2022/06/20 03:38:56;;;;;;;11.48;6.13;;;24.70;99.90;;;;;;7397714;19;20610;-73
2022/06/20 03:41:25;;;;;;;11.13;6.18;;;24.90;99.90;;;;;;7394563;19;20196;-74
2022/06/20 03:44:00;;;;;;;19.13;7.55;;;24.80;99.90;;;;;;7397299;19;20142;-73
2022/06/20 03:46:35;;;;;;;14.43;6.32;;;24.80;99.90;;;;;;7396172;19;20137;-74
2022/06/20 03:49:09;;;;;;;15.23;6.50;;;24.70;99.90;;;;;;7395771;19;20152;-73
2022/06/20 03:51:46;;;;;;;10.90;5.57;;;24.50;99.90;;;;;;7397816;19;20148;-73
2022/06/20 03:54:42;;;;;;;11.07;6.65;;;24.20;99.90;;;;;;7397927;19;20597;-73
2022/06/20 03:57:11;;;;;;;9.13;5.25;;;24.20;99.90;;;;;;7395574;19;20158;-74
2022/06/20 03:59:45;;;;;;;11.60;5.75;;;24.20;99.90;;;;;;7394366;19;20499;-73
2022/06/20 04:02:17;;;;;;;9.55;5.70;;;24.10;99.90;;;;;;7397464;19;20161;-74
2022/06/20 04:04:58;;;;;;;11.80;5.82;;;23.90;99.90;;;;;;7395758;19;20193;-73
2022/06/20 04:07:33;;;;;;;10.27;4.95;;;23.60;99.90;;;;;;7395709;19;20197;-73
2022/06/20 04:13:03;;;;;;;11.43;4.90;;;23.40;99.90;;;;;;7396091;19;20138;-73
2022/06/20 04:15:43;;;;;;;10.90;5.22;;;23.20;99.90;;;;;;7395153;19;20184;-75
2022/06/20 04:18:36;;;;;;;12.40;6.20;;;23.40;99.90;;;;;;7394910;19;20144;-73
2022/06/20 04:21:28;;;;;;;9.27;4.93;;;23.60;99.90;;;;;;7393584;19;20488;-73
2022/06/20 04:24:41;;;;;;;7.63;5.47;;;23.20;99.90;;;;;;7395302;19;20169;-74
2022/06/20 04:27:31;;;;;;;12.23;5.35;;;23.30;99.90;;;;;;7396141;19;20146;-73
2022/06/20 04:30:08;;;;;;;11.70;5.47;;;23.60;99.90;;;;;;7392578;19;20154;-73
2022/06/20 04:32:39;;;;;;;11.52;5.70;;;23.40;99.90;;;;;;7393017;19;20150;-72
2022/06/20 04:35:17;;;;;;;6.93;4.90;;;23.40;99.90;;;;;;7392591;19;20772;-74
2022/06/20 04:38:18;;;;;;;10.82;4.50;;;23.20;99.90;;;;;;7395066;19;20500;-73
2022/06/20 04:40:56;;;;;;;7.80;4.38;;;23.30;99.90;;;;;;7390505;19;20154;-73
2022/06/20 04:43:48;;;;;;;8.80;4.53;;;23.50;99.90;;;;;;7395247;19;20142;-74
2022/06/20 04:46:33;;;;;;;7.70;4.53;;;23.60;99.90;;;;;;7395550;19;20142;-74
2022/06/20 04:49:00;;;;;;;10.07;5.43;;;23.70;99.90;;;;;;7394979;19;20189;-74
2022/06/20 04:51:36;;;;;;;10.82;4.80;;;23.60;99.90;;;;;;7392186;19;20198;-74
2022/06/20 04:54:05;;;;;;;8.13;5.00;;;23.70;99.90;;;;;;7395384;19;20134;-73
2022/06/20 04:56:31;;;;;;;9.98;5.22;;;23.70;99.90;;;;;;7392230;19;20149;-74
2022/06/20 04:59:02;;;;;;;7.90;4.88;;;23.50;99.90;;;;;;7393225;19;20220;-75
2022/06/20 05:01:34;;;;;;;7.20;4.50;;;23.50;99.90;;;;;;7389454;19;20135;-74
2022/06/20 05:04:23;;;;;;;11.52;5.22;;;23.60;99.90;;;;;;7391845;19;20146;-74
2022/06/20 05:06:50;;;;;;;7.43;4.43;;;23.70;99.90;;;;;;7394470;19;20131;-74
2022/06/20 05:09:22;;;;;;;8.20;5.32;;;23.70;99.90;;;;;;7394628;19;20460;-74
2022/06/20 05:11:57;;;;;;;10.43;5.35;;;23.80;99.90;;;;;;7395367;19;20134;-74
2022/06/20 05:14:36;;;;;;;13.30;4.93;;;23.90;99.90;;;;;;7394223;19;20452;-73
2022/06/20 05:17:04;;;;;;;11.63;4.70;;;23.80;99.90;;;;;;7393850;19;20130;-74
2022/06/20 05:19:40;;;;;;;6.97;4.55;;;23.80;99.90;;;;;;7391665;19;20226;-74
2022/06/20 05:22:13;;;;;;;8.68;4.82;;;23.80;99.90;;;;;;7393935;19;20598;-75
2022/06/20 05:24:44;;;;;;;10.15;4.28;;;23.80;99.90;;;;;;7392059;19;20532;-75
2022/06/20 05:27:45;;;;;;;8.73;4.35;;;23.80;99.90;;;;;;7392002;19;20518;-74
2022/06/20 05:30:17;;;;;;;7.80;4.72;;;23.80;99.90;;;;;;7387488;19;20154;-75
2022/06/20 05:32:53;;;;;;;7.13;4.05;;;23.80;99.90;;;;;;7392709;19;20134;-74
2022/06/20 05:35:24;;;;;;;8.65;4.15;;;23.90;99.90;;;;;;7389719;19;20146;-75
2022/06/20 05:37:53;;;;;;;11.27;4.50;;;23.80;99.90;;;;;;7392118;19;20138;-75
2022/06/20 05:40:43;;;;;;;8.38;4.55;;;23.70;99.90;;;;;;7388410;19;20487;-74
2022/06/20 05:43:22;;;;;;;9.30;4.05;;;23.60;99.90;;;;;;7393216;19;20138;-75
2022/06/20 05:45:55;;;;;;;8.30;4.03;;;23.50;99.90;;;;;;7391200;19;20593;-74
2022/06/20 05:48:30;;;;;;;6.93;4.13;;;23.50;99.90;;;;;;7390629;19;21981;-74
2022/06/20 05:51:03;;;;;;;9.32;4.40;;;23.30;99.90;;;;;;7393318;19;20130;-74
2022/06/20 05:53:44;;;;;;;8.82;4.90;;;23.50;99.90;;;;;;7391834;19;20526;-75
2022/06/20 05:56:18;;;;;;;8.13;4.70;;;23.60;99.90;;;;;;7387781;19;20138;-76
2022/06/20 05:58:45;;;;;;;11.18;5.13;;;23.60;99.90;;;;;;7387537;19;20123;-75
2022/06/20 06:01:18;;;;;;;11.63;5.18;;;23.60;99.90;;;;;;7389778;19;20127;-75
2022/06/20 06:03:55;;;;;;;9.05;5.65;;;23.80;99.90;;;;;;7390546;19;20170;-74
2022/06/20 06:06:27;;;;;;;8.10;4.50;;;23.80;99.90;;;;;;7388756;19;20137;-71
2022/06/20 06:09:01;;;;;;;7.22;4.95;;;23.80;99.90;;;;;;7392262;19;20138;-72
2022/06/20 06:11:43;;;;;;;13.05;4.75;;;23.80;99.90;;;;;;7392162;19;20134;-73
2022/06/20 06:14:23;;;;;;;9.50;4.47;;;23.80;99.90;;;;;;7391908;19;20161;-73
2022/06/20 06:17:00;;;;;;;7.65;4.25;;;23.80;99.90;;;;;;7390303;19;20142;-72
2022/06/20 06:19:33;;;;;;;11.65;4.78;;;23.80;99.90;;;;;;7388912;19;20152;-72
2022/06/20 06:22:37;;;;;;;10.15;5.13;;;23.80;99.90;;;;;;7390510;19;20213;-72
2022/06/20 06:25:17;;;;;;;13.25;5.13;;;23.80;99.90;;;;;;7385821;19;20145;-71
2022/06/20 06:27:45;;;;;;;14.95;4.78;;;23.90;99.90;;;;;;7390020;19;20134;-72
2022/06/20 06:30:25;;;;;;;9.40;5.57;;;23.90;99.90;;;;;;7390560;19;20154;-73
2022/06/20 06:32:57;;;;;;;12.00;5.20;;;24.00;99.90;;;;;;7388216;19;20683;-72
2022/06/20 06:35:45;;;;;;;8.88;5.00;;;24.00;99.90;;;;;;7389197;19;20225;-72
2022/06/20 06:38:17;;;;;;;12.35;5.60;;;24.10;99.90;;;;;;7389956;19;20138;-72
2022/06/20 06:40:54;;;;;;;12.27;5.60;;;24.10;99.90;;;;;;7386539;19;20137;-72
2022/06/20 06:43:26;;;;;;;12.55;5.20;;;24.20;99.90;;;;;;7388955;19;20142;-74
2022/06/20 06:45:54;;;;;;;11.18;4.80;;;24.70;99.90;;;;;;7386527;19;20165;-75
2022/06/20 06:48:39;;;;;;;7.43;4.68;;;25.40;99.90;;;;;;7388483;19;20145;-74
2022/06/20 06:51:11;;;;;;;11.02;4.88;;;26.00;99.90;;;;;;7390111;19;20138;-73
2022/06/20 06:53:55;;;;;;;10.32;5.53;;;25.90;99.90;;;;;;7388499;19;20135;-75
2022/06/20 06:56:42;;;;;;;10.23;5.25;;;25.50;99.90;;;;;;7389242;19;20181;-75
2022/06/20 06:59:44;;;;;;;12.95;5.45;;;25.20;99.90;;;;;;7390601;19;20135;-75
2022/06/20 07:02:23;;;;;;;8.55;5.15;;;25.00;99.90;;;;;;7387591;19;20657;-75
2022/06/20 07:04:55;;;;;;;11.95;4.95;;;24.80;99.90;;;;;;7389542;19;20500;-75
2022/06/20 07:07:31;;;;;;;11.80;5.18;;;25.10;99.90;;;;;;7386971;19;20146;-74
2022/06/20 07:09:58;;;;;;;12.45;5.43;;;25.90;99.90;;;;;;7388846;19;20141;-75
2022/06/20 07:12:27;;;;;;;9.48;5.53;;;26.90;99.90;;;;;;7389721;19;20150;-74
2022/06/20 07:15:06;;;;;;;8.20;5.03;;;27.80;99.90;;;;;;7391823;19;20139;-76
2022/06/20 07:18:02;;;;;;;10.00;4.93;;;28.10;99.90;;;;;;7387086;19;20146;-78
2022/06/20 07:20:34;;;;;;;10.55;4.80;;;28.00;99.90;;;;;;7385683;19;20307;-77
2022/06/20 07:23:04;;;;;;;6.50;4.13;;;28.20;99.90;;;;;;7389388;19;20134;-77
2022/06/20 07:25:39;;;;;;;11.75;4.72;;;28.30;99.90;;;;;;7388133;19;20147;-78
2022/06/20 07:28:18;;;;;;;10.75;4.43;;;28.80;99.90;;;;;;7392152;19;20151;-77
2022/06/20 07:30:50;;;;;;;13.43;5.10;;;29.20;99.90;;;;;;7390429;19;20139;-77
2022/06/20 07:33:22;;;;;;;12.57;4.75;;;29.00;99.90;;;;;;7385265;19;20496;-75
2022/06/20 07:35:52;;;;;;;10.93;4.00;;;28.90;99.90;;;;;;7387509;19;20461;-72
2022/06/20 07:38:23;;;;;;;8.43;4.00;;;28.70;99.90;;;;;;7384442;19;20157;-80
2022/06/20 07:40:58;;;;;;;6.60;4.07;;;28.60;99.90;;;;;;7386437;19;20137;-78
2022/06/20 07:43:34;;;;;;;9.10;5.38;;;29.20;99.90;;;;;;7390100;19;20143;-73
2022/06/20 07:46:14;;;;;;;13.88;10.93;;;29.80;99.90;;;;;;7390853;19;20251;-74
2022/06/20 07:48:42;;;;;;;7.07;4.10;;;30.10;99.90;;;;;;7385592;19;20153;-74
2022/06/20 07:51:14;;;;;;;9.88;4.82;;;30.10;99.90;;;;;;7386110;19;20141;-73
2022/06/20 07:53:57;;;;;;;10.13;5.05;;;30.20;99.90;;;;;;7393781;19;20149;-76
2022/06/20 07:56:47;;;;;;;10.10;6.05;;;30.10;99.90;;;;;;7395071;19;20122;-74
2022/06/20 07:59:21;;;;;;;8.90;5.00;;;30.20;99.90;;;;;;7394709;19;20146;-77
2022/06/20 08:02:14;;;;;;;5.22;4.00;;;30.70;99.90;;;;;;7397182;19;20563;-73
2022/06/20 08:04:42;;;;;;;11.38;4.03;;;30.80;99.90;;;;;;7390548;19;20185;-72
2022/06/20 08:07:17;;;;;;;9.68;3.80;;;30.50;99.90;;;;;;7396153;19;20154;-77
2022/06/20 08:09:51;;;;;;;9.35;4.13;;;30.20;99.90;;;;;;7393768;19;20509;-76
2022/06/20 08:12:20;;;;;;;6.78;4.20;;;29.60;99.90;;;;;;7395394;19;20168;-76
2022/06/20 08:14:56;;;;;;;7.70;3.70;;;29.50;99.90;;;;;;7394657;19;20134;-73
2022/06/20 08:17:23;;;;;;;9.30;4.80;;;29.20;99.90;;;;;;7397782;19;20891;-72
2022/06/20 08:19:50;;;;;;;6.28;3.67;;;28.70;99.90;;;;;;7395298;19;20174;-77
2022/06/20 08:22:34;;;;;;;5.82;3.92;;;28.20;99.90;;;;;;7401907;19;20525;-72
2022/06/20 08:25:06;;;;;;;19.05;5.32;;;28.30;99.90;;;;;;7400596;19;20482;-75
2022/06/20 08:27:46;;;;;;;6.90;3.88;;;28.90;99.90;;;;;;7393556;19;20903;-79
2022/06/20 08:30:39;;;;;;;4.80;3.10;;;29.50;99.90;;;;;;7392938;19;20159;-76
2022/06/20 08:33:33;;;;;;;9.88;3.55;;;30.10;99.90;;;;;;7395917;19;20150;-77
2022/06/20 08:36:16;;;;;;;6.15;3.08;;;30.30;99.90;;;;;;7393756;19;20512;-74
2022/06/20 08:38:42;;;;;;;5.68;3.40;;;29.30;99.90;;;;;;7394951;19;20154;-71
2022/06/20 08:41:29;;;;;;;8.88;3.50;;;29.10;99.90;;;;;;7391574;19;20143;-73
2022/06/20 08:44:08;;;;;;;7.28;3.70;;;29.00;99.90;;;;;;7394317;19;20135;-72
2022/06/20 08:47:09;;;;;;;9.73;3.75;;;29.30;99.90;;;;;;7395001;19;20154;-73
2022/06/20 08:50:12;;;;;;;6.53;3.35;;;29.70;99.90;;;;;;7392571;19;20161;-73
2022/06/20 08:52:56;;;;;;;8.10;4.05;;;29.40;99.90;;;;;;7394133;19;20142;-77
2022/06/20 08:55:40;;;;;;;5.55;3.65;;;29.30;99.90;;;;;;7393776;19;20154;-77
2022/06/20 08:58:25;;;;;;;8.65;3.65;;;29.10;99.90;;;;;;7393348;19;20222;-73
2022/06/20 09:01:16;;;;;;;9.68;3.60;;;29.20;99.90;;;;;;7392130;19;20619;-74
2022/06/20 09:04:08;;;;;;;7.00;3.35;;;29.40;99.90;;;;;;7388101;19;20146;-75
2022/06/20 09:07:05;;;;;;;7.20;3.60;;;29.60;99.90;;;;;;7392773;19;20134;-74
2022/06/20 09:09:50;;;;;;;8.13;3.95;;;30.00;99.90;;;;;;7392552;19;20134;-77
2022/06/20 09:12:43;;;;;;;8.90;3.88;;;30.00;99.60;;;;;;7394512;19;20134;-76
2022/06/20 09:15:47;;;;;;;5.85;3.88;;;29.90;99.90;;;;;;7396939;19;20130;-72
2022/06/20 09:18:19;;;;;;;15.52;4.65;;;29.70;99.90;;;;;;7396988;19;20142;-74
2022/06/20 09:21:02;;;;;;;7.13;3.90;;;29.70;99.90;;;;;;7390239;19;20199;-77
2022/06/20 09:23:48;;;;;;;6.65;3.70;;;29.60;99.90;;;;;;7393384;19;20158;-76
2022/06/20 09:26:21;;;;;;;6.72;3.92;;;29.30;99.90;;;;;;7393596;19;20142;-72
2022/06/20 09:29:17;;;;;;;8.85;4.15;;;29.20;99.90;;;;;;7391616;19;20615;-71
2022/06/20 09:32:13;;;;;;;8.57;3.67;;;29.20;99.90;;;;;;7391798;19;20172;-71
2022/06/20 09:35:24;;;;;;;6.28;3.20;;;29.50;99.90;;;;;;7389873;19;20515;-75
2022/06/20 09:38:19;;;;;;;7.72;3.47;;;29.70;99.90;;;;;;7391686;19;20552;-77
2022/06/20 09:41:19;;;;;;;7.20;3.67;;;29.20;99.90;;;;;;7386260;19;20155;-76
2022/06/20 09:44:00;;;;;;;10.07;3.92;;;29.20;99.90;;;;;;7391522;19;20161;-71
2022/06/20 09:46:49;;;;;;;10.30;3.97;;;29.50;99.90;;;;;;7394663;19;20475;-74
2022/06/20 09:49:34;;;;;;;6.38;4.30;;;29.40;99.90;;;;;;7392636;19;20614;-72
2022/06/20 09:52:09;;;;;;;8.93;4.60;;;29.20;99.90;;;;;;7391236;19;20151;-72
2022/06/20 09:54:43;;;;;;;7.50;3.63;;;29.60;99.90;;;;;;7392760;19;20170;-73
2022/06/20 09:57:09;;;;;;;5.03;3.88;;;29.40;99.90;;;;;;7393152;19;20142;-77
2022/06/20 09:59:41;;;;;;;7.55;3.60;;;28.90;99.90;;;;;;7389440;19;20142;-77
2022/06/20 10:02:45;;;;;;;8.02;3.90;;;28.60;99.90;;;;;;7392399;19;20218;-77
2022/06/20 10:05:13;;;;;;;8.35;4.57;;;28.50;99.90;;;;;;7388874;19;20809;-71
2022/06/20 10:08:06;;;;;;;5.72;3.30;;;28.50;99.90;;;;;;7391412;19;20618;-79
2022/06/20 10:10:53;;;;;;;10.27;3.40;;;28.50;99.90;;;;;;7390865;19;20150;-80
2022/06/20 10:13:32;;;;;;;8.18;3.47;;;28.50;99.90;;;;;;7390026;19;20587;-78
2022/06/20 10:16:11;;;;;;;7.28;3.50;;;28.50;99.90;;;;;;7390438;19;20145;-74
2022/06/20 10:18:53;;;;;;;9.38;3.70;;;28.60;99.90;;;;;;7388663;19;20150;-74
2022/06/20 10:21:39;;;;;;;5.25;3.05;;;28.60;99.90;;;;;;7386924;19;20195;-77
2022/06/20 10:24:16;;;;;;;4.70;3.30;;;29.20;99.90;;;;;;7390471;19;20134;-76
2022/06/20 10:26:57;;;;;;;7.15;3.33;;;29.40;99.90;;;;;;7389117;19;20138;-78
2022/06/20 10:29:24;;;;;;;4.80;3.00;;;29.60;99.90;;;;;;7391118;19;20607;-77
2022/06/20 10:32:17;;;;;;;5.93;3.65;;;29.40;99.90;;;;;;7384222;19;20146;-78
2022/06/20 10:34:49;;;;;;;7.63;3.13;;;29.30;99.90;;;;;;7390097;19;20145;-77
2022/06/20 10:37:37;;;;;;;4.82;3.22;;;29.30;99.90;;;;;;7388438;19;20163;-78
2022/06/20 10:40:03;;;;;;;6.10;3.38;;;29.10;99.90;;;;;;7387035;19;20446;-72
2022/06/20 10:42:32;;;;;;;5.47;3.50;;;28.90;99.90;;;;;;7389663;19;20617;-73
2022/06/20 10:45:16;;;;;;;5.80;3.42;;;28.80;99.90;;;;;;7387146;19;20145;-72
2022/06/20 10:47:50;;;;;;;6.18;3.13;;;28.50;99.90;;;;;;7390838;19;20149;-72
2022/06/20 10:50:38;;;;;;;5.05;3.55;;;28.30;99.90;;;;;;7390384;19;20141;-74
2022/06/20 10:53:07;;;;;;;7.80;3.13;;;28.10;99.90;;;;;;7389937;19;20162;-76
2022/06/20 10:55:55;;;;;;;4.95;2.92;;;28.00;99.90;;;;;;7390352;19;20119;-74
2022/06/20 10:58:39;;;;;;;4.75;2.80;;;28.00;99.90;;;;;;7387355;19;20145;-72
2022/06/20 11:01:45;;;;;;;5.28;2.55;;;28.20;99.90;;;;;;7387936;19;20158;-76
2022/06/20 11:04:16;;;;;;;4.03;2.53;;;28.20;99.30;;;;;;7389685;19;20203;-72
2022/06/20 11:06:56;;;;;;;5.70;2.33;;;28.30;99.30;;;;;;7387956;19;20171;-76
2022/06/20 11:09:31;;;;;;;4.85;3.00;;;28.60;99.10;;;;;;7388920;19;20154;-73
2022/06/20 11:12:08;;;;;;;4.78;3.13;;;28.80;99.20;;;;;;7390910;19;20199;-77
2022/06/20 11:15:07;;;;;;;5.72;3.25;;;29.00;99.10;;;;;;7391545;19;20483;-75
2022/06/20 11:17:43;;;;;;;9.02;3.85;;;28.60;99.30;;;;;;7390064;19;20142;-76
2022/06/20 11:20:38;;;;;;;16.33;3.95;;;28.20;99.90;;;;;;7387992;19;20177;-74
2022/06/20 11:23:29;;;;;;;6.10;3.17;;;28.10;99.90;;;;;;7390525;19;20157;-78
2022/06/20 11:26:01;;;;;;;52.22;9.90;;;27.70;99.90;;;;;;7388121;19;20150;-73
2022/06/20 11:29:11;;;;;;;7.22;3.13;;;27.50;99.90;;;;;;7396074;19;20146;-74
2022/06/20 11:32:04;;;;;;;8.60;4.00;;;27.30;99.90;;;;;;7394694;19;20135;-78
2022/06/20 11:34:40;;;;;;;9.10;4.07;;;27.40;99.90;;;;;;7396283;19;20154;-73
2022/06/20 11:37:22;;;;;;;8.77;3.58;;;27.50;99.90;;;;;;7398576;19;20138;-73
2022/06/20 11:39:51;;;;;;;8.25;3.70;;;27.50;99.90;;;;;;7394137;19;20154;-79
2022/06/20 11:42:41;;;;;;;24.67;4.72;;;27.40;99.90;;;;;;7397067;19;20130;-80
2022/06/20 11:45:38;;;;;;;9.82;4.00;;;27.20;99.90;;;;;;7396192;19;20164;-79
2022/06/20 11:48:15;;;;;;;6.55;3.72;;;27.10;99.90;;;;;;7395322;19;20578;-73
2022/06/20 11:51:03;;;;;;;5.28;3.28;;;27.20;99.90;;;;;;7394323;19;20188;-72
2022/06/20 11:53:41;;;;;;;5.57;3.72;;;27.10;99.90;;;;;;7396519;19;20155;-73
2022/06/20 11:56:26;;;;;;;8.88;3.75;;;27.10;99.90;;;;;;7393411;19;20147;-73
2022/06/20 11:59:02;;;;;;;6.15;3.30;;;27.40;99.90;;;;;;7396145;19;20625;-78
2022/06/20 12:01:41;;;;;;;6.38;3.55;;;27.50;99.90;;;;;;7394272;19;20981;-76
2022/06/20 12:04:22;;;;;;;6.53;3.35;;;27.40;99.90;;;;;;7396730;19;20174;-76
2022/06/20 12:06:51;;;;;;;8.20;3.00;;;27.50;99.90;;;;;;7394922;19;20150;-74
2022/06/20 12:09:32;;;;;;;4.78;3.25;;;27.60;99.90;;;;;;7394717;19;20127;-77
2022/06/20 12:12:12;;;;;;;6.03;3.40;;;27.70;99.90;;;;;;7396632;19;20552;-73
2022/06/20 12:14:38;;;;;;;4.32;2.67;;;27.80;99.90;;;;;;7397186;19;20771;-77
2022/06/20 12:17:34;;;;;;;5.78;3.42;;;27.70;99.90;;;;;;7392940;19;20162;-73
2022/06/20 12:23:21;;;;;;;3.40;2.13;;;27.70;99.90;;;;;;7394393;19;20542;-75
2022/06/20 12:26:04;;;;;;;3.63;2.22;;;27.60;99.90;;;;;;7392921;19;20167;-74
2022/06/20 12:28:37;;;;;;;2.08;1.70;;;27.70;99.90;;;;;;7396042;19;20126;-75
2022/06/20 12:31:14;;;;;;;3.75;1.70;;;27.60;99.90;;;;;;7393674;19;20134;-75
2022/06/20 12:33:48;;;;;;;4.57;2.10;;;27.70;99.90;;;;;;7393853;19;20134;-79
2022/06/20 12:36:46;;;;;;;8.35;2.60;;;27.60;99.90;;;;;;7394021;19;20157;-79
2022/06/20 12:39:18;;;;;;;6.07;3.00;;;27.60;99.90;;;;;;7391581;19;20635;-78
2022/06/20 12:41:49;;;;;;;11.43;3.22;;;27.50;99.90;;;;;;7390636;19;20155;-78
2022/06/20 12:44:41;;;;;;;7.20;3.15;;;27.50;99.90;;;;;;7394884;19;20205;-71
2022/06/20 12:47:06;;;;;;;5.50;3.17;;;27.30;99.90;;;;;;7392783;19;20130;-76
2022/06/20 12:50:23;;;;;;;7.13;2.67;;;27.20;99.90;;;;;;7393383;19;20202;-73
2022/06/20 12:53:19;;;;;;;6.57;3.17;;;27.20;99.90;;;;;;7393515;19;20158;-73
2022/06/20 12:56:04;;;;;;;6.97;2.97;;;26.60;99.90;;;;;;7394251;19;20123;-74
2022/06/20 12:59:06;;;;;;;9.07;3.35;;;26.50;99.90;;;;;;7393747;19;20155;-78
2022/06/20 13:01:44;;;;;;;6.63;3.30;;;26.30;99.90;;;;;;7391956;19;20130;-76
2022/06/20 13:04:46;;;;;;;6.70;3.35;;;26.30;99.90;;;;;;7390721;19;20221;-73
2022/06/20 13:07:18;;;;;;;4.47;3.00;;;26.20;99.90;;;;;;7392920;19;20489;-72
2022/06/20 13:10:11;;;;;;;6.22;3.42;;;26.20;99.90;;;;;;7393462;19;20119;-74
2022/06/20 13:13:15;;;;;;;7.22;3.33;;;26.20;99.90;;;;;;7393135;19;20158;-77
2022/06/20 13:15:52;;;;;;;5.32;3.00;;;26.30;99.90;;;;;;7394602;19;20138;-73
2022/06/20 13:19:01;;;;;;;6.50;3.03;;;26.30;99.90;;;;;;7393652;19;20158;-79
2022/06/20 13:21:35;;;;;;;6.07;3.50;;;26.30;99.90;;;;;;7391110;19;20174;-73
2022/06/20 13:24:09;;;;;;;6.45;3.25;;;26.30;99.90;;;;;;7391425;19;20566;-79
2022/06/20 13:26:47;;;;;;;5.57;3.03;;;26.20;99.90;;;;;;7392751;19;20141;-74
2022/06/20 13:29:19;;;;;;;7.47;2.95;;;26.00;99.90;;;;;;7392350;19;20144;-80
2022/06/20 13:31:52;;;;;;;5.40;3.08;;;25.90;99.90;;;;;;7393654;19;20752;-79
2022/06/20 13:34:46;;;;;;;4.93;3.10;;;25.80;99.90;;;;;;7393755;19;20479;-75
2022/06/20 13:37:32;;;;;;;4.50;3.00;;;25.80;99.90;;;;;;7391490;19;20475;-79
2022/06/20 13:40:12;;;;;;;5.97;3.45;;;25.70;99.90;;;;;;7390091;19;20185;-78
2022/06/20 13:42:47;;;;;;;5.72;3.40;;;25.80;99.90;;;;;;7392512;19;20233;-74
2022/06/20 13:45:29;;;;;;;4.38;2.90;;;25.90;99.90;;;;;;7393303;19;20155;-77
2022/06/20 13:48:32;;;;;;;5.90;3.30;;;25.90;99.90;;;;;;7392185;19;20174;-77